RYR66UL EGHH-LFBE
Flight info
| Callsign | RYR66UL |
|---|---|
| Flight time | 1h 10m |
| Altitude | 33000 |
| Route | THRED DCT ORTAC DCT REN DCT NTS DCT CNA/N0338F190 R17 VELIN |
| Aircraft | B38M/M-SDE1FGHILORVWXY/HB1 |
Departure
| Time | 2026-04-26 16:59 |
|---|---|
| Airport | Bournemouth Airport (EGHH) |
Arrival
| Time | 2026-04-26 18:09 |
|---|---|
| Airport | Bergerac Dordogne-Périgord airport (LFBE) |
| Time | Latitude | Longitude | Altitude | Speed | Heading |
|---|---|---|---|---|---|
| 2026-04-26 16:29 | 50.77844 | -1.83402 | 45 ft | 0 kts | 84° |
| 2026-04-26 16:47 | 50.77844 | -1.83424 | 45 ft | 2 kts | 95° |
| 2026-04-26 16:48 | 50.77847 | -1.83449 | 44 ft | 2 kts | 118° |
| 2026-04-26 16:48 | 50.77857 | -1.83469 | 41 ft | 2 kts | 152° |
| 2026-04-26 16:48 | 50.77872 | -1.83477 | 45 ft | 2 kts | 170° |
| 2026-04-26 16:48 | 50.77880 | -1.83479 | 45 ft | 0 kts | 173° |
| 2026-04-26 16:54 | 50.77879 | -1.83479 | 45 ft | 1 kts | 173° |
| 2026-04-26 16:54 | 50.77871 | -1.83477 | 45 ft | 2 kts | 171° |
| 2026-04-26 16:54 | 50.77838 | -1.83471 | 45 ft | 7 kts | 174° |
| 2026-04-26 16:54 | 50.77772 | -1.83466 | 45 ft | 12 kts | 176° |
| 2026-04-26 16:55 | 50.77678 | -1.83474 | 45 ft | 15 kts | 184° |
| 2026-04-26 16:55 | 50.77583 | -1.83547 | 45 ft | 16 kts | 241° |
| 2026-04-26 16:55 | 50.77576 | -1.83723 | 46 ft | 17 kts | 272° |
| 2026-04-26 16:55 | 50.77593 | -1.83924 | 46 ft | 20 kts | 281° |
| 2026-04-26 16:56 | 50.77677 | -1.84384 | 47 ft | 24 kts | 288° |
| 2026-04-26 16:56 | 50.77715 | -1.84644 | 46 ft | 25 kts | 281° |
| 2026-04-26 16:56 | 50.77770 | -1.84893 | 48 ft | 24 kts | 299° |
| 2026-04-26 16:57 | 50.77845 | -1.85077 | 50 ft | 10 kts | 329° |
| 2026-04-26 16:57 | 50.77874 | -1.85071 | 50 ft | 1 kts | 41° |
| 2026-04-26 16:57 | 50.77877 | -1.85052 | 49 ft | 5 kts | 76° |
| 2026-04-26 16:58 | 50.77897 | -1.84920 | 49 ft | 20 kts | 75° |
| 2026-04-26 16:58 | 50.77933 | -1.84701 | 49 ft | 49 kts | 75° |
| 2026-04-26 16:58 | 50.78389 | -1.81919 | 310 ft | 143 kts | 77° |
| 2026-04-26 16:59 | 50.78610 | -1.80340 | 677 ft | 148 kts | 88° |
| 2026-04-26 16:59 | 50.77393 | -1.78269 | 1757 ft | 131 kts | 153° |
| 2026-04-26 17:00 | 50.75311 | -1.77238 | 1954 ft | 178 kts | 157° |
| 2026-04-26 17:00 | 50.72791 | -1.76017 | 2794 ft | 196 kts | 162° |
| 2026-04-26 17:00 | 50.71426 | -1.75451 | 3210 ft | 209 kts | 163° |
| 2026-04-26 17:01 | 50.69971 | -1.74841 | 3630 ft | 224 kts | 162° |
| 2026-04-26 17:01 | 50.68410 | -1.74181 | 4052 ft | 240 kts | 163° |
| 2026-04-26 17:01 | 50.66750 | -1.73480 | 4524 ft | 253 kts | 163° |
| 2026-04-26 17:01 | 50.65020 | -1.72753 | 5125 ft | 261 kts | 165° |
| 2026-04-26 17:02 | 50.63248 | -1.72009 | 5769 ft | 266 kts | 165° |
| 2026-04-26 17:02 | 50.61446 | -1.71251 | 6438 ft | 271 kts | 165° |
| 2026-04-26 17:02 | 50.59615 | -1.70481 | 7090 ft | 274 kts | 166° |
| 2026-04-26 17:02 | 50.57759 | -1.69701 | 7779 ft | 277 kts | 166° |
| 2026-04-26 17:03 | 50.55889 | -1.68917 | 8454 ft | 280 kts | 166° |
| 2026-04-26 17:03 | 50.54001 | -1.68125 | 9144 ft | 283 kts | 166° |
| 2026-04-26 17:03 | 50.52092 | -1.67324 | 9857 ft | 285 kts | 166° |
| 2026-04-26 17:03 | 50.50141 | -1.66805 | 10509 ft | 286 kts | 184° |
| 2026-04-26 17:04 | 50.48193 | -1.67516 | 10979 ft | 294 kts | 203° |
| 2026-04-26 17:04 | 50.46279 | -1.68824 | 11331 ft | 307 kts | 205° |
| 2026-04-26 17:04 | 50.44328 | -1.70213 | 11785 ft | 316 kts | 205° |
| 2026-04-26 17:04 | 50.42299 | -1.71620 | 12346 ft | 322 kts | 204° |
| 2026-04-26 17:05 | 50.40233 | -1.73026 | 12952 ft | 326 kts | 204° |
| 2026-04-26 17:05 | 50.38141 | -1.74458 | 13573 ft | 330 kts | 204° |
| 2026-04-26 17:05 | 50.36031 | -1.75913 | 14200 ft | 333 kts | 204° |
| 2026-04-26 17:05 | 50.33893 | -1.77383 | 14775 ft | 337 kts | 205° |
| 2026-04-26 17:06 | 50.31735 | -1.78860 | 15339 ft | 340 kts | 205° |
| 2026-04-26 17:06 | 50.29560 | -1.80349 | 15896 ft | 344 kts | 205° |
| 2026-04-26 17:06 | 50.27358 | -1.81856 | 16472 ft | 347 kts | 206° |
| 2026-04-26 17:06 | 50.25135 | -1.83376 | 17014 ft | 350 kts | 206° |
| 2026-04-26 17:07 | 50.22890 | -1.84908 | 17569 ft | 354 kts | 206° |
| 2026-04-26 17:07 | 50.20627 | -1.86451 | 18120 ft | 357 kts | 206° |
| 2026-04-26 17:07 | 50.18346 | -1.88005 | 18662 ft | 360 kts | 206° |
| 2026-04-26 17:07 | 50.16040 | -1.89575 | 19111 ft | 363 kts | 206° |
| 2026-04-26 17:08 | 50.13720 | -1.91152 | 19584 ft | 365 kts | 206° |
| 2026-04-26 17:08 | 50.11381 | -1.92740 | 20056 ft | 368 kts | 206° |
| 2026-04-26 17:08 | 50.09026 | -1.94337 | 20527 ft | 370 kts | 206° |
| 2026-04-26 17:08 | 50.07457 | -1.95401 | 20841 ft | 372 kts | 206° |
| 2026-04-26 17:09 | 50.05078 | -1.97012 | 21304 ft | 375 kts | 206° |
| 2026-04-26 17:09 | 50.03459 | -1.98107 | 21617 ft | 376 kts | 206° |
| 2026-04-26 17:09 | 50.00205 | -2.00030 | 22228 ft | 383 kts | 192° |
| 2026-04-26 17:09 | 49.97530 | -2.00209 | 22697 ft | 389 kts | 179° |
| 2026-04-26 17:10 | 49.94819 | -1.99830 | 23126 ft | 393 kts | 177° |
| 2026-04-26 17:10 | 49.92092 | -1.99378 | 23577 ft | 395 kts | 177° |
| 2026-04-26 17:10 | 49.89347 | -1.98978 | 23976 ft | 397 kts | 178° |
| 2026-04-26 17:10 | 49.86584 | -1.98620 | 24343 ft | 400 kts | 178° |
| 2026-04-26 17:11 | 49.83805 | -1.98239 | 24696 ft | 402 kts | 178° |
| 2026-04-26 17:11 | 49.81006 | -1.97829 | 25054 ft | 405 kts | 178° |
| 2026-04-26 17:11 | 49.78194 | -1.97425 | 25402 ft | 407 kts | 178° |
| 2026-04-26 17:11 | 49.75367 | -1.97035 | 25745 ft | 409 kts | 178° |
| 2026-04-26 17:12 | 49.69659 | -1.96237 | 26417 ft | 414 kts | 178° |
| 2026-04-26 17:12 | 49.66788 | -1.95831 | 26734 ft | 416 kts | 178° |
| 2026-04-26 17:13 | 49.60985 | -1.95024 | 27389 ft | 421 kts | 178° |
| 2026-04-26 17:13 | 49.58063 | -1.94616 | 27702 ft | 423 kts | 178° |
| 2026-04-26 17:13 | 49.52172 | -1.93794 | 28321 ft | 427 kts | 178° |
| 2026-04-26 17:14 | 49.49208 | -1.93383 | 28598 ft | 429 kts | 178° |
| 2026-04-26 17:14 | 49.43231 | -1.92552 | 29195 ft | 433 kts | 178° |
| 2026-04-26 17:14 | 49.40223 | -1.92136 | 29486 ft | 435 kts | 178° |
| 2026-04-26 17:15 | 49.34162 | -1.91298 | 30058 ft | 439 kts | 177° |
| 2026-04-26 17:15 | 49.31112 | -1.90877 | 30327 ft | 441 kts | 177° |
| 2026-04-26 17:15 | 49.28047 | -1.90455 | 30549 ft | 443 kts | 177° |
| 2026-04-26 17:16 | 49.24971 | -1.90032 | 30786 ft | 445 kts | 178° |
| 2026-04-26 17:16 | 49.21883 | -1.89607 | 31011 ft | 447 kts | 178° |
| 2026-04-26 17:16 | 49.18778 | -1.89181 | 31250 ft | 448 kts | 178° |
| 2026-04-26 17:16 | 49.15667 | -1.88754 | 31479 ft | 450 kts | 178° |
| 2026-04-26 17:17 | 49.12546 | -1.88327 | 31746 ft | 450 kts | 178° |
| 2026-04-26 17:17 | 49.09432 | -1.87900 | 32087 ft | 449 kts | 178° |
| 2026-04-26 17:17 | 49.06319 | -1.87474 | 32412 ft | 448 kts | 178° |
| 2026-04-26 17:17 | 49.03261 | -1.87058 | 32718 ft | 447 kts | 178° |
| 2026-04-26 17:18 | 49.00166 | -1.86636 | 33027 ft | 446 kts | 178° |
| 2026-04-26 17:18 | 48.97081 | -1.86215 | 33186 ft | 443 kts | 178° |
| 2026-04-26 17:18 | 48.94039 | -1.85800 | 33181 ft | 436 kts | 178° |
| 2026-04-26 17:19 | 48.84983 | -1.84576 | 33183 ft | 435 kts | 178° |
| 2026-04-26 17:19 | 48.78954 | -1.83759 | 33188 ft | 435 kts | 178° |
| 2026-04-26 17:20 | 48.73899 | -1.83079 | 33185 ft | 436 kts | 178° |
| 2026-04-26 17:20 | 48.66873 | -1.82132 | 33185 ft | 436 kts | 178° |
| 2026-04-26 17:21 | 48.60819 | -1.81320 | 33185 ft | 437 kts | 178° |
| 2026-04-26 17:21 | 48.54750 | -1.80506 | 33181 ft | 437 kts | 178° |
| 2026-04-26 17:22 | 48.48690 | -1.79698 | 33188 ft | 437 kts | 178° |
| 2026-04-26 17:22 | 48.42631 | -1.78890 | 33177 ft | 437 kts | 178° |
| 2026-04-26 17:23 | 48.36567 | -1.78084 | 33180 ft | 438 kts | 178° |
| 2026-04-26 17:23 | 48.30503 | -1.77280 | 33179 ft | 437 kts | 178° |
| 2026-04-26 17:24 | 48.24445 | -1.76478 | 33177 ft | 437 kts | 178° |
| 2026-04-26 17:24 | 48.18393 | -1.75680 | 33180 ft | 437 kts | 178° |
| 2026-04-26 17:25 | 48.12327 | -1.74881 | 33180 ft | 438 kts | 178° |
| 2026-04-26 17:25 | 48.06251 | -1.74083 | 33179 ft | 438 kts | 178° |
| 2026-04-26 17:26 | 48.00179 | -1.73198 | 33184 ft | 439 kts | 177° |
| 2026-04-26 17:26 | 47.94102 | -1.72325 | 33177 ft | 438 kts | 177° |
| 2026-04-26 17:27 | 47.88029 | -1.71458 | 33173 ft | 438 kts | 177° |
| 2026-04-26 17:27 | 47.82001 | -1.70592 | 33168 ft | 438 kts | 177° |
| 2026-04-26 17:28 | 47.75894 | -1.69724 | 33163 ft | 438 kts | 177° |
| 2026-04-26 17:28 | 47.69876 | -1.68865 | 33157 ft | 437 kts | 178° |
| 2026-04-26 17:29 | 47.64807 | -1.68147 | 33155 ft | 437 kts | 178° |
| 2026-04-26 17:29 | 47.57769 | -1.67149 | 33140 ft | 438 kts | 178° |
| 2026-04-26 17:30 | 47.51701 | -1.66292 | 33155 ft | 438 kts | 178° |
| 2026-04-26 17:30 | 47.45628 | -1.65435 | 33155 ft | 438 kts | 178° |
| 2026-04-26 17:31 | 47.39560 | -1.64581 | 33151 ft | 438 kts | 178° |
| 2026-04-26 17:31 | 47.33498 | -1.63730 | 33156 ft | 437 kts | 178° |
| 2026-04-26 17:32 | 47.27438 | -1.62882 | 33153 ft | 437 kts | 178° |
| 2026-04-26 17:32 | 47.21374 | -1.62034 | 33158 ft | 438 kts | 178° |
| 2026-04-26 17:33 | 47.15378 | -1.60521 | 33201 ft | 444 kts | 159° |
| 2026-04-26 17:34 | 47.07397 | -1.53480 | 33162 ft | 446 kts | 152° |
| 2026-04-26 17:34 | 47.02077 | -1.48822 | 33173 ft | 446 kts | 152° |
| 2026-04-26 17:35 | 46.96784 | -1.44070 | 33177 ft | 446 kts | 152° |
| 2026-04-26 17:35 | 46.91468 | -1.39381 | 33184 ft | 446 kts | 152° |
| 2026-04-26 17:36 | 46.86160 | -1.34671 | 33187 ft | 446 kts | 152° |
| 2026-04-26 17:36 | 46.80845 | -1.29986 | 33190 ft | 446 kts | 152° |
| 2026-04-26 17:37 | 46.75526 | -1.25299 | 33192 ft | 447 kts | 152° |
| 2026-04-26 17:37 | 46.70200 | -1.20621 | 33185 ft | 447 kts | 152° |
| 2026-04-26 17:38 | 46.62183 | -1.13595 | 33181 ft | 448 kts | 152° |
| 2026-04-26 17:38 | 46.56834 | -1.08926 | 33177 ft | 448 kts | 152° |
| 2026-04-26 17:39 | 46.51482 | -1.04261 | 33167 ft | 449 kts | 152° |
| 2026-04-26 17:39 | 46.46118 | -0.99598 | 33164 ft | 450 kts | 152° |
| 2026-04-26 17:40 | 46.42562 | -0.96512 | 33167 ft | 450 kts | 152° |
| 2026-04-26 17:40 | 46.35425 | -0.90333 | 33158 ft | 449 kts | 152° |
| 2026-04-26 17:41 | 46.30058 | -0.85698 | 33159 ft | 449 kts | 152° |
| 2026-04-26 17:41 | 46.24688 | -0.81073 | 33157 ft | 450 kts | 152° |
| 2026-04-26 17:42 | 46.19301 | -0.76443 | 33155 ft | 451 kts | 151° |
| 2026-04-26 17:42 | 46.13901 | -0.71812 | 33159 ft | 452 kts | 151° |
| 2026-04-26 17:43 | 46.08487 | -0.67180 | 33156 ft | 452 kts | 151° |
| 2026-04-26 17:43 | 46.03082 | -0.62568 | 33150 ft | 449 kts | 151° |
| 2026-04-26 17:44 | 46.00425 | -0.60302 | 32912 ft | 441 kts | 151° |
| 2026-04-26 17:44 | 45.97814 | -0.58079 | 32698 ft | 433 kts | 151° |
| 2026-04-26 17:44 | 45.95223 | -0.55879 | 32178 ft | 432 kts | 151° |
| 2026-04-26 17:44 | 45.92636 | -0.53683 | 31661 ft | 432 kts | 151° |
| 2026-04-26 17:45 | 45.90050 | -0.51488 | 31157 ft | 431 kts | 151° |
| 2026-04-26 17:45 | 45.87466 | -0.49298 | 30629 ft | 431 kts | 151° |
| 2026-04-26 17:45 | 45.84881 | -0.47111 | 30100 ft | 431 kts | 151° |
| 2026-04-26 17:45 | 45.82305 | -0.44933 | 29547 ft | 429 kts | 151° |
| 2026-04-26 17:46 | 45.79744 | -0.42769 | 29038 ft | 427 kts | 151° |
| 2026-04-26 17:46 | 45.77192 | -0.40616 | 28527 ft | 424 kts | 151° |
| 2026-04-26 17:46 | 45.74652 | -0.38476 | 28016 ft | 422 kts | 151° |
| 2026-04-26 17:46 | 45.72128 | -0.36351 | 27525 ft | 420 kts | 151° |
| 2026-04-26 17:47 | 45.69616 | -0.34238 | 26994 ft | 418 kts | 151° |
| 2026-04-26 17:47 | 45.68768 | -0.33525 | 26824 ft | 417 kts | 151° |
| 2026-04-26 17:47 | 45.64568 | -0.30196 | 26011 ft | 413 kts | 156° |
| 2026-04-26 17:47 | 45.61985 | -0.28429 | 25505 ft | 411 kts | 155° |
| 2026-04-26 17:48 | 45.59419 | -0.26641 | 25021 ft | 409 kts | 155° |
| 2026-04-26 17:48 | 45.56883 | -0.24872 | 24520 ft | 402 kts | 155° |
| 2026-04-26 17:48 | 45.54384 | -0.23150 | 24058 ft | 395 kts | 155° |
| 2026-04-26 17:48 | 45.51926 | -0.21462 | 23569 ft | 389 kts | 155° |
| 2026-04-26 17:49 | 45.49512 | -0.19797 | 23085 ft | 382 kts | 155° |
| 2026-04-26 17:49 | 45.47143 | -0.18159 | 22635 ft | 375 kts | 156° |
| 2026-04-26 17:49 | 45.44817 | -0.16560 | 22207 ft | 368 kts | 156° |
| 2026-04-26 17:49 | 45.42529 | -0.14991 | 21772 ft | 362 kts | 155° |
| 2026-04-26 17:50 | 45.40275 | -0.13442 | 21338 ft | 357 kts | 155° |
| 2026-04-26 17:50 | 45.38087 | -0.11937 | 20974 ft | 351 kts | 156° |
| 2026-04-26 17:50 | 45.35851 | -0.10405 | 20443 ft | 354 kts | 156° |
| 2026-04-26 17:50 | 45.33640 | -0.08893 | 19679 ft | 360 kts | 156° |
| 2026-04-26 17:51 | 45.31367 | -0.07338 | 18844 ft | 363 kts | 155° |
| 2026-04-26 17:51 | 45.29087 | -0.05778 | 17901 ft | 364 kts | 155° |
| 2026-04-26 17:51 | 45.26780 | -0.04199 | 17001 ft | 362 kts | 155° |
| 2026-04-26 17:51 | 45.24549 | -0.02676 | 16140 ft | 360 kts | 155° |
| 2026-04-26 17:52 | 45.22271 | -0.01124 | 15279 ft | 357 kts | 154° |
| 2026-04-26 17:52 | 45.20077 | 0.00371 | 14438 ft | 350 kts | 154° |
| 2026-04-26 17:52 | 45.17931 | 0.01832 | 13568 ft | 335 kts | 154° |
| 2026-04-26 17:52 | 45.15871 | 0.03233 | 12638 ft | 322 kts | 154° |
| 2026-04-26 17:53 | 45.13878 | 0.04588 | 11737 ft | 313 kts | 154° |
| 2026-04-26 17:53 | 45.11942 | 0.05903 | 10863 ft | 305 kts | 154° |
| 2026-04-26 17:53 | 45.10052 | 0.07186 | 10067 ft | 298 kts | 154° |
| 2026-04-26 17:54 | 45.06983 | 0.09267 | 8639 ft | 286 kts | 154° |
| 2026-04-26 17:54 | 45.05213 | 0.10467 | 7877 ft | 278 kts | 154° |
| 2026-04-26 17:54 | 45.03536 | 0.11672 | 7187 ft | 268 kts | 149° |
| 2026-04-26 17:54 | 45.01881 | 0.12886 | 6577 ft | 261 kts | 154° |
| 2026-04-26 17:55 | 45.00237 | 0.13963 | 6112 ft | 260 kts | 153° |
| 2026-04-26 17:55 | 44.98700 | 0.15238 | 6036 ft | 262 kts | 133° |
| 2026-04-26 17:55 | 44.97767 | 0.17400 | 6034 ft | 256 kts | 105° |
| 2026-04-26 17:55 | 44.97413 | 0.19834 | 5964 ft | 256 kts | 99° |
| 2026-04-26 17:56 | 44.97137 | 0.22310 | 5850 ft | 255 kts | 99° |
| 2026-04-26 17:56 | 44.96514 | 0.27218 | 5614 ft | 252 kts | 100° |
| 2026-04-26 17:57 | 44.95897 | 0.31993 | 5344 ft | 240 kts | 99° |
| 2026-04-26 17:57 | 44.95604 | 0.34285 | 5230 ft | 235 kts | 99° |
| 2026-04-26 17:57 | 44.95314 | 0.36527 | 5113 ft | 231 kts | 99° |
| 2026-04-26 17:57 | 44.95028 | 0.38738 | 5002 ft | 233 kts | 99° |
| 2026-04-26 17:58 | 44.94144 | 0.45554 | 4638 ft | 235 kts | 98° |
| 2026-04-26 17:59 | 44.93551 | 0.50114 | 4432 ft | 235 kts | 98° |
| 2026-04-26 17:59 | 44.93255 | 0.52380 | 4320 ft | 235 kts | 98° |
| 2026-04-26 17:59 | 44.92959 | 0.54649 | 4224 ft | 235 kts | 98° |
| 2026-04-26 17:59 | 44.92666 | 0.56884 | 4132 ft | 235 kts | 98° |
| 2026-04-26 18:00 | 44.92365 | 0.59178 | 4032 ft | 234 kts | 98° |
| 2026-04-26 18:00 | 44.92071 | 0.61413 | 3929 ft | 235 kts | 98° |
| 2026-04-26 18:00 | 44.91774 | 0.63677 | 3833 ft | 235 kts | 98° |
| 2026-04-26 18:00 | 44.91475 | 0.65945 | 3722 ft | 236 kts | 98° |
| 2026-04-26 18:01 | 44.91175 | 0.68215 | 3598 ft | 235 kts | 98° |
| 2026-04-26 18:01 | 44.90875 | 0.70486 | 3485 ft | 235 kts | 98° |
| 2026-04-26 18:01 | 44.90574 | 0.72760 | 3352 ft | 235 kts | 98° |
| 2026-04-26 18:01 | 44.90274 | 0.75024 | 3226 ft | 235 kts | 99° |
| 2026-04-26 18:02 | 44.89973 | 0.77288 | 3100 ft | 235 kts | 99° |
| 2026-04-26 18:02 | 44.89769 | 0.78822 | 3020 ft | 237 kts | 99° |
| 2026-04-26 18:02 | 44.88735 | 0.81342 | 2909 ft | 217 kts | 143° |
| 2026-04-26 18:02 | 44.87418 | 0.82085 | 2820 ft | 201 kts | 174° |
| 2026-04-26 18:03 | 44.86030 | 0.82013 | 2725 ft | 199 kts | 186° |
| 2026-04-26 18:03 | 44.84667 | 0.81849 | 2612 ft | 196 kts | 185° |
| 2026-04-26 18:03 | 44.83295 | 0.81692 | 2505 ft | 195 kts | 186° |
| 2026-04-26 18:03 | 44.81988 | 0.81308 | 2514 ft | 198 kts | 210° |
| 2026-04-26 18:04 | 44.81115 | 0.79944 | 2515 ft | 188 kts | 254° |
| 2026-04-26 18:04 | 44.81065 | 0.78153 | 2517 ft | 184 kts | 279° |
| 2026-04-26 18:04 | 44.81163 | 0.76338 | 2501 ft | 183 kts | 276° |
| 2026-04-26 18:05 | 44.81336 | 0.72839 | 2495 ft | 172 kts | 276° |
| 2026-04-26 18:05 | 44.81427 | 0.71160 | 2494 ft | 171 kts | 277° |
| 2026-04-26 18:05 | 44.81517 | 0.69484 | 2433 ft | 173 kts | 276° |
| 2026-04-26 18:05 | 44.81606 | 0.67821 | 2190 ft | 168 kts | 277° |
| 2026-04-26 18:06 | 44.81696 | 0.66165 | 1967 ft | 168 kts | 276° |
| 2026-04-26 18:06 | 44.81783 | 0.64538 | 1749 ft | 167 kts | 276° |
| 2026-04-26 18:06 | 44.81870 | 0.62922 | 1542 ft | 166 kts | 276° |
| 2026-04-26 18:06 | 44.81947 | 0.61361 | 1305 ft | 150 kts | 276° |
| 2026-04-26 18:07 | 44.82023 | 0.59917 | 1128 ft | 145 kts | 276° |
| 2026-04-26 18:07 | 44.82095 | 0.58572 | 951 ft | 134 kts | 275° |
| 2026-04-26 18:07 | 44.82165 | 0.57274 | 779 ft | 132 kts | 274° |
| 2026-04-26 18:07 | 44.82215 | 0.56411 | 678 ft | 133 kts | 274° |
| 2026-04-26 18:08 | 44.82310 | 0.54699 | 420 ft | 133 kts | 274° |
| 2026-04-26 18:08 | 44.82369 | 0.53404 | 254 ft | 130 kts | 274° |
| 2026-04-26 18:08 | 44.82439 | 0.52181 | 182 ft | 120 kts | 275° |
| 2026-04-26 18:08 | 44.82483 | 0.51308 | 180 ft | 65 kts | 274° |
| 2026-04-26 18:09 | 44.82510 | 0.50794 | 180 ft | 39 kts | 275° |
| 2026-04-26 18:09 | 44.82458 | 0.50666 | 179 ft | 9 kts | 184° |
| 2026-04-26 18:09 | 44.82414 | 0.50662 | 179 ft | 4 kts | 184° |
| 2026-04-26 18:09 | 44.82403 | 0.50661 | 179 ft | 0 kts | 182° |
| 2026-04-26 18:10 | 44.82401 | 0.50661 | 179 ft | 3 kts | 181° |
| 2026-04-26 18:10 | 44.82363 | 0.50681 | 179 ft | 8 kts | 138° |
| 2026-04-26 18:10 | 44.82350 | 0.50769 | 179 ft | 12 kts | 93° |
| 2026-04-26 18:11 | 44.82343 | 0.50904 | 179 ft | 16 kts | 94° |
| 2026-04-26 18:11 | 44.82334 | 0.51066 | 179 ft | 16 kts | 94° |
| 2026-04-26 18:11 | 44.82325 | 0.51227 | 179 ft | 16 kts | 94° |
| 2026-04-26 18:11 | 44.82317 | 0.51385 | 179 ft | 12 kts | 94° |
| 2026-04-26 18:12 | 44.82312 | 0.51481 | 179 ft | 6 kts | 90° |
| 2026-04-26 18:12 | 44.82297 | 0.51505 | 179 ft | 2 kts | 157° |
| 2026-04-26 18:12 | 44.82285 | 0.51504 | 179 ft | 1 kts | 187° |
| 2026-04-26 18:12 | 44.82275 | 0.51497 | 179 ft | 2 kts | 211° |
| 2026-04-26 18:13 | 44.82272 | 0.51485 | 179 ft | 1 kts | 254° |
| 2026-04-26 18:13 | 44.82272 | 0.51480 | 179 ft | 0 kts | 269° |
| 2026-04-26 18:13 | 44.82272 | 0.51475 | 179 ft | 1 kts | 271° |
| 2026-04-26 18:13 | 44.82272 | 0.51474 | 179 ft | 0 kts | 271° |